sensor_id;sensor_type;location;lat;lon;timestamp;temperature;humidity
11246;DHT22;59870;50.106;8.580;2022-08-19T00:02:15;25.50;72.60
11246;DHT22;59870;50.106;8.580;2022-08-19T00:04:42;25.50;72.70
11246;DHT22;59870;50.106;8.580;2022-08-19T00:07:09;25.60;73.20
11246;DHT22;59870;50.106;8.580;2022-08-19T00:09:37;25.60;72.40
11246;DHT22;59870;50.106;8.580;2022-08-19T00:12:04;25.50;72.10
11246;DHT22;59870;50.106;8.580;2022-08-19T00:14:33;25.50;72.40
11246;DHT22;59870;50.106;8.580;2022-08-19T00:17:01;25.50;72.20
11246;DHT22;59870;50.106;8.580;2022-08-19T00:19:30;25.50;72.10
11246;DHT22;59870;50.106;8.580;2022-08-19T00:21:57;25.50;72.40
11246;DHT22;59870;50.106;8.580;2022-08-19T00:24:25;25.50;72.00
11246;DHT22;59870;50.106;8.580;2022-08-19T00:26:56;25.40;71.90
11246;DHT22;59870;50.106;8.580;2022-08-19T00:29:44;25.40;72.30
11246;DHT22;59870;50.106;8.580;2022-08-19T00:32:11;25.50;71.90
11246;DHT22;59870;50.106;8.580;2022-08-19T00:34:40;25.50;72.40
11246;DHT22;59870;50.106;8.580;2022-08-19T00:37:07;25.70;72.50
11246;DHT22;59870;50.106;8.580;2022-08-19T00:39:35;25.40;71.60
11246;DHT22;59870;50.106;8.580;2022-08-19T00:42:03;26.10;72.90
11246;DHT22;59870;50.106;8.580;2022-08-19T00:44:31;25.40;72.10
11246;DHT22;59870;50.106;8.580;2022-08-19T00:46:59;25.70;72.30
11246;DHT22;59870;50.106;8.580;2022-08-19T00:49:38;25.40;72.00
11246;DHT22;59870;50.106;8.580;2022-08-19T00:52:11;25.40;72.00
11246;DHT22;59870;50.106;8.580;2022-08-19T00:54:40;25.40;72.40
11246;DHT22;59870;50.106;8.580;2022-08-19T00:57:12;25.40;72.00
11246;DHT22;59870;50.106;8.580;2022-08-19T00:59:43;25.90;72.30
11246;DHT22;59870;50.106;8.580;2022-08-19T01:02:30;25.60;72.00
11246;DHT22;59870;50.106;8.580;2022-08-19T01:05:01;25.40;72.50
11246;DHT22;59870;50.106;8.580;2022-08-19T01:07:30;25.40;71.90
11246;DHT22;59870;50.106;8.580;2022-08-19T01:10:07;25.60;72.20
11246;DHT22;59870;50.106;8.580;2022-08-19T01:12:36;25.40;72.30
11246;DHT22;59870;50.106;8.580;2022-08-19T01:15:06;25.40;71.60
11246;DHT22;59870;50.106;8.580;2022-08-19T01:17:36;25.40;71.50
11246;DHT22;59870;50.106;8.580;2022-08-19T01:20:07;25.40;71.60
11246;DHT22;59870;50.106;8.580;2022-08-19T01:22:49;25.40;71.40
11246;DHT22;59870;50.106;8.580;2022-08-19T01:25:22;25.70;71.80
11246;DHT22;59870;50.106;8.580;2022-08-19T01:27:52;25.40;71.50
11246;DHT22;59870;50.106;8.580;2022-08-19T01:30:25;25.70;71.50
11246;DHT22;59870;50.106;8.580;2022-08-19T01:32:54;25.40;71.20
11246;DHT22;59870;50.106;8.580;2022-08-19T01:35:24;25.40;71.30
11246;DHT22;59870;50.106;8.580;2022-08-19T01:37:58;26.00;72.40
11246;DHT22;59870;50.106;8.580;2022-08-19T01:40:30;25.40;71.10
11246;DHT22;59870;50.106;8.580;2022-08-19T01:42:59;25.40;71.00
11246;DHT22;59870;50.106;8.580;2022-08-19T01:45:28;25.70;71.50
11246;DHT22;59870;50.106;8.580;2022-08-19T01:47:56;25.40;71.20
11246;DHT22;59870;50.106;8.580;2022-08-19T01:50:31;25.40;70.90
11246;DHT22;59870;50.106;8.580;2022-08-19T01:52:59;24.90;70.50
11246;DHT22;59870;50.106;8.580;2022-08-19T01:55:36;25.40;70.70
11246;DHT22;59870;50.106;8.580;2022-08-19T01:58:14;25.40;71.00
11246;DHT22;59870;50.106;8.580;2022-08-19T02:00:44;25.40;71.00
11246;DHT22;59870;50.106;8.580;2022-08-19T02:03:12;25.80;71.00
11246;DHT22;59870;50.106;8.580;2022-08-19T02:05:41;25.50;71.40
11246;DHT22;59870;50.106;8.580;2022-08-19T02:08:09;25.50;72.30
11246;DHT22;59870;50.106;8.580;2022-08-19T02:10:42;26.10;71.60
11246;DHT22;59870;50.106;8.580;2022-08-19T02:13:12;25.60;71.40
11246;DHT22;59870;50.106;8.580;2022-08-19T02:15:40;25.50;72.10
11246;DHT22;59870;50.106;8.580;2022-08-19T02:18:08;25.50;72.20
11246;DHT22;59870;50.106;8.580;2022-08-19T02:20:38;25.50;72.00
11246;DHT22;59870;50.106;8.580;2022-08-19T02:23:17;25.50;72.30
11246;DHT22;59870;50.106;8.580;2022-08-19T02:25:50;25.40;71.60
11246;DHT22;59870;50.106;8.580;2022-08-19T02:28:28;25.40;72.20
11246;DHT22;59870;50.106;8.580;2022-08-19T02:30:59;25.40;72.30
11246;DHT22;59870;50.106;8.580;2022-08-19T02:33:28;26.00;73.10
11246;DHT22;59870;50.106;8.580;2022-08-19T02:35:57;25.40;72.70
11246;DHT22;59870;50.106;8.580;2022-08-19T02:38:30;25.80;72.80
11246;DHT22;59870;50.106;8.580;2022-08-19T02:41:16;25.50;72.60
11246;DHT22;59870;50.106;8.580;2022-08-19T02:43:55;26.00;73.10
11246;DHT22;59870;50.106;8.580;2022-08-19T02:46:55;25.40;73.00
11246;DHT22;59870;50.106;8.580;2022-08-19T02:49:27;25.80;73.70
11246;DHT22;59870;50.106;8.580;2022-08-19T02:52:04;25.40;73.60
11246;DHT22;59870;50.106;8.580;2022-08-19T02:54:52;25.40;73.20
11246;DHT22;59870;50.106;8.580;2022-08-19T02:57:32;25.30;74.20
11246;DHT22;59870;50.106;8.580;2022-08-19T03:00:25;25.30;73.80
11246;DHT22;59870;50.106;8.580;2022-08-19T03:03:13;25.30;73.90
11246;DHT22;59870;50.106;8.580;2022-08-19T03:05:46;25.30;73.90
11246;DHT22;59870;50.106;8.580;2022-08-19T03:08:24;25.40;74.00
11246;DHT22;59870;50.106;8.580;2022-08-19T03:10:56;25.40;74.30
11246;DHT22;59870;50.106;8.580;2022-08-19T03:13:33;25.40;74.30
11246;DHT22;59870;50.106;8.580;2022-08-19T03:16:04;25.40;74.50
11246;DHT22;59870;50.106;8.580;2022-08-19T03:18:31;25.40;74.50
11246;DHT22;59870;50.106;8.580;2022-08-19T03:20:59;25.40;74.50
11246;DHT22;59870;50.106;8.580;2022-08-19T03:23:26;26.00;74.80
11246;DHT22;59870;50.106;8.580;2022-08-19T03:25:54;25.50;74.20
11246;DHT22;59870;50.106;8.580;2022-08-19T03:28:45;25.50;74.10
11246;DHT22;59870;50.106;8.580;2022-08-19T03:31:27;25.50;74.00
11246;DHT22;59870;50.106;8.580;2022-08-19T03:34:27;25.70;74.50
11246;DHT22;59870;50.106;8.580;2022-08-19T03:37:14;25.50;73.80
11246;DHT22;59870;50.106;8.580;2022-08-19T03:40:06;25.90;73.80
11246;DHT22;59870;50.106;8.580;2022-08-19T03:42:43;25.60;73.70
11246;DHT22;59870;50.106;8.580;2022-08-19T03:45:25;25.70;73.20
11246;DHT22;59870;50.106;8.580;2022-08-19T03:48:14;25.70;71.70
11246;DHT22;59870;50.106;8.580;2022-08-19T03:51:08;26.00;72.80
11246;DHT22;59870;50.106;8.580;2022-08-19T03:54:12;25.60;73.30
11246;DHT22;59870;50.106;8.580;2022-08-19T03:56:41;25.60;73.10
11246;DHT22;59870;50.106;8.580;2022-08-19T03:59:12;25.50;73.10
11246;DHT22;59870;50.106;8.580;2022-08-19T04:04:55;25.40;73.20
11246;DHT22;59870;50.106;8.580;2022-08-19T04:07:50;25.40;73.10
11246;DHT22;59870;50.106;8.580;2022-08-19T04:10:21;25.40;72.70
11246;DHT22;59870;50.106;8.580;2022-08-19T04:12:58;25.40;72.80
11246;DHT22;59870;50.106;8.580;2022-08-19T04:15:31;25.40;72.20
11246;DHT22;59870;50.106;8.580;2022-08-19T04:18:13;25.40;73.60
11246;DHT22;59870;50.106;8.580;2022-08-19T04:20:48;25.40;73.50
11246;DHT22;59870;50.106;8.580;2022-08-19T04:23:17;25.30;74.50
11246;DHT22;59870;50.106;8.580;2022-08-19T04:25:47;25.30;73.50
11246;DHT22;59870;50.106;8.580;2022-08-19T04:28:15;25.30;74.40
11246;DHT22;59870;50.106;8.580;2022-08-19T04:30:48;25.30;75.40
11246;DHT22;59870;50.106;8.580;2022-08-19T04:33:18;25.80;75.20
11246;DHT22;59870;50.106;8.580;2022-08-19T04:35:54;25.20;75.30
11246;DHT22;59870;50.106;8.580;2022-08-19T04:38:22;25.20;75.40
11246;DHT22;59870;50.106;8.580;2022-08-19T04:40:51;25.70;76.00
11246;DHT22;59870;50.106;8.580;2022-08-19T04:43:38;25.20;76.20
11246;DHT22;59870;50.106;8.580;2022-08-19T04:46:08;25.20;76.10
11246;DHT22;59870;50.106;8.580;2022-08-19T04:48:54;25.10;76.70
11246;DHT22;59870;50.106;8.580;2022-08-19T04:51:24;25.10;76.90
11246;DHT22;59870;50.106;8.580;2022-08-19T04:53:52;25.20;77.40
11246;DHT22;59870;50.106;8.580;2022-08-19T04:56:20;25.10;77.70
11246;DHT22;59870;50.106;8.580;2022-08-19T04:58:50;25.70;78.20
11246;DHT22;59870;50.106;8.580;2022-08-19T05:01:21;25.20;78.60
11246;DHT22;59870;50.106;8.580;2022-08-19T05:03:50;25.70;79.10
11246;DHT22;59870;50.106;8.580;2022-08-19T05:06:20;25.10;78.60
11246;DHT22;59870;50.106;8.580;2022-08-19T05:08:48;25.10;79.20
11246;DHT22;59870;50.106;8.580;2022-08-19T05:11:20;25.00;79.50
11246;DHT22;59870;50.106;8.580;2022-08-19T05:13:52;25.60;80.10
11246;DHT22;59870;50.106;8.580;2022-08-19T05:16:21;25.10;79.80
11246;DHT22;59870;50.106;8.580;2022-08-19T05:18:49;25.00;79.60
11246;DHT22;59870;50.106;8.580;2022-08-19T05:21:36;25.00;79.60
11246;DHT22;59870;50.106;8.580;2022-08-19T05:24:23;25.10;79.20
11246;DHT22;59870;50.106;8.580;2022-08-19T05:26:54;25.10;78.90
11246;DHT22;59870;50.106;8.580;2022-08-19T05:29:25;25.00;79.10
11246;DHT22;59870;50.106;8.580;2022-08-19T05:32:01;25.10;79.80
11246;DHT22;59870;50.106;8.580;2022-08-19T05:34:29;25.10;79.50
11246;DHT22;59870;50.106;8.580;2022-08-19T05:36:58;25.40;79.80
11246;DHT22;59870;50.106;8.580;2022-08-19T05:39:28;25.20;79.50
11246;DHT22;59870;50.106;8.580;2022-08-19T05:42:06;25.20;79.60
11246;DHT22;59870;50.106;8.580;2022-08-19T05:44:40;25.30;78.80
11246;DHT22;59870;50.106;8.580;2022-08-19T05:47:13;25.40;78.20
11246;DHT22;59870;50.106;8.580;2022-08-19T05:49:42;25.40;78.20
11246;DHT22;59870;50.106;8.580;2022-08-19T05:52:13;25.50;77.90
11246;DHT22;59870;50.106;8.580;2022-08-19T05:54:43;25.50;76.80
11246;DHT22;59870;50.106;8.580;2022-08-19T05:57:11;25.60;76.10
11246;DHT22;59870;50.106;8.580;2022-08-19T05:59:39;25.70;75.80
11246;DHT22;59870;50.106;8.580;2022-08-19T06:02:07;25.80;75.70
11246;DHT22;59870;50.106;8.580;2022-08-19T06:04:34;26.40;76.30
11246;DHT22;59870;50.106;8.580;2022-08-19T06:07:02;26.00;75.80
11246;DHT22;59870;50.106;8.580;2022-08-19T06:09:39;26.10;75.70
11246;DHT22;59870;50.106;8.580;2022-08-19T06:12:07;26.10;74.20
11246;DHT22;59870;50.106;8.580;2022-08-19T06:14:35;26.20;73.30
11246;DHT22;59870;50.106;8.580;2022-08-19T06:17:08;26.60;73.00
11246;DHT22;59870;50.106;8.580;2022-08-19T06:19:35;27.00;71.60
11246;DHT22;59870;50.106;8.580;2022-08-19T06:22:07;26.50;72.30
11246;DHT22;59870;50.106;8.580;2022-08-19T06:24:35;26.60;70.10
11246;DHT22;59870;50.106;8.580;2022-08-19T06:27:03;26.70;68.70
11246;DHT22;59870;50.106;8.580;2022-08-19T06:29:32;26.80;67.60
11246;DHT22;59870;50.106;8.580;2022-08-19T06:32:02;26.90;66.90
11246;DHT22;59870;50.106;8.580;2022-08-19T06:34:32;26.90;66.60
11246;DHT22;59870;50.106;8.580;2022-08-19T06:37:00;26.90;64.70
11246;DHT22;59870;50.106;8.580;2022-08-19T06:39:34;26.90;64.50
11246;DHT22;59870;50.106;8.580;2022-08-19T06:42:03;27.00;65.20
11246;DHT22;59870;50.106;8.580;2022-08-19T06:44:36;27.10;65.20
11246;DHT22;59870;50.106;8.580;2022-08-19T06:47:11;27.20;66.00
11246;DHT22;59870;50.106;8.580;2022-08-19T06:49:49;27.40;64.50
11246;DHT22;59870;50.106;8.580;2022-08-19T06:52:16;27.50;63.50
11246;DHT22;59870;50.106;8.580;2022-08-19T06:54:44;27.70;63.20
11246;DHT22;59870;50.106;8.580;2022-08-19T06:57:23;27.70;62.20
11246;DHT22;59870;50.106;8.580;2022-08-19T06:59:51;27.90;62.00
11246;DHT22;59870;50.106;8.580;2022-08-19T07:02:19;28.00;61.40
11246;DHT22;59870;50.106;8.580;2022-08-19T07:04:48;28.80;59.60
11246;DHT22;59870;50.106;8.580;2022-08-19T07:07:21;28.40;58.70
11246;DHT22;59870;50.106;8.580;2022-08-19T07:09:50;28.50;58.90
11246;DHT22;59870;50.106;8.580;2022-08-19T07:12:29;28.70;59.60
11246;DHT22;59870;50.106;8.580;2022-08-19T07:15:04;29.00;58.90
11246;DHT22;59870;50.106;8.580;2022-08-19T07:17:31;29.20;58.80
11246;DHT22;59870;50.106;8.580;2022-08-19T07:20:02;29.80;59.10
11246;DHT22;59870;50.106;8.580;2022-08-19T07:22:31;29.50;56.70
11246;DHT22;59870;50.106;8.580;2022-08-19T07:25:00;29.70;55.20
11246;DHT22;59870;50.106;8.580;2022-08-19T07:27:30;30.00;55.70
11246;DHT22;59870;50.106;8.580;2022-08-19T07:30:00;30.10;54.90
11246;DHT22;59870;50.106;8.580;2022-08-19T07:32:28;30.20;52.70
11246;DHT22;59870;50.106;8.580;2022-08-19T07:34:56;30.40;53.40
11246;DHT22;59870;50.106;8.580;2022-08-19T07:37:24;30.80;52.00
11246;DHT22;59870;50.106;8.580;2022-08-19T07:40:00;30.70;52.20
11246;DHT22;59870;50.106;8.580;2022-08-19T07:42:28;30.80;51.50
11246;DHT22;59870;50.106;8.580;2022-08-19T07:44:58;31.00;50.80
11246;DHT22;59870;50.106;8.580;2022-08-19T07:47:26;31.10;51.20
11246;DHT22;59870;50.106;8.580;2022-08-19T07:50:16;31.30;49.60
11246;DHT22;59870;50.106;8.580;2022-08-19T07:52:47;31.50;48.90
11246;DHT22;59870;50.106;8.580;2022-08-19T07:55:20;31.70;49.00
11246;DHT22;59870;50.106;8.580;2022-08-19T07:58:10;31.60;48.90
11246;DHT22;59870;50.106;8.580;2022-08-19T08:00:39;31.60;47.70
11246;DHT22;59870;50.106;8.580;2022-08-19T08:03:07;31.70;47.90
11246;DHT22;59870;50.106;8.580;2022-08-19T08:05:35;31.60;47.30
11246;DHT22;59870;50.106;8.580;2022-08-19T08:08:21;31.60;48.20
11246;DHT22;59870;50.106;8.580;2022-08-19T08:11:16;31.80;48.50
11246;DHT22;59870;50.106;8.580;2022-08-19T08:13:48;31.90;47.70
11246;DHT22;59870;50.106;8.580;2022-08-19T08:16:34;32.10;47.10
11246;DHT22;59870;50.106;8.580;2022-08-19T08:19:06;32.40;46.60
11246;DHT22;59870;50.106;8.580;2022-08-19T08:21:54;32.80;47.10
11246;DHT22;59870;50.106;8.580;2022-08-19T08:24:24;32.10;47.00
11246;DHT22;59870;50.106;8.580;2022-08-19T08:26:55;32.30;46.90
11246;DHT22;59870;50.106;8.580;2022-08-19T08:29:25;32.50;46.60
11246;DHT22;59870;50.106;8.580;2022-08-19T08:32:01;32.70;46.30
11246;DHT22;59870;50.106;8.580;2022-08-19T08:34:40;32.70;44.90
11246;DHT22;59870;50.106;8.580;2022-08-19T08:37:08;32.90;45.20
11246;DHT22;59870;50.106;8.580;2022-08-19T08:39:35;33.00;44.10
11246;DHT22;59870;50.106;8.580;2022-08-19T08:44:59;33.00;44.80
11246;DHT22;59870;50.106;8.580;2022-08-19T08:47:31;33.30;44.20
11246;DHT22;59870;50.106;8.580;2022-08-19T08:50:09;33.40;44.00
11246;DHT22;59870;50.106;8.580;2022-08-19T08:52:44;33.40;42.40
11246;DHT22;59870;50.106;8.580;2022-08-19T08:55:15;33.40;42.00
11246;DHT22;59870;50.106;8.580;2022-08-19T09:00:31;33.40;42.10
11246;DHT22;59870;50.106;8.580;2022-08-19T09:03:00;33.40;43.20
11246;DHT22;59870;50.106;8.580;2022-08-19T09:11:16;33.80;43.20
11246;DHT22;59870;50.106;8.580;2022-08-19T09:17:20;34.00;41.90
11246;DHT22;59870;50.106;8.580;2022-08-19T09:19:55;34.10;42.00
11246;DHT22;59870;50.106;8.580;2022-08-19T09:22:23;34.20;41.30
11246;DHT22;59870;50.106;8.580;2022-08-19T09:24:54;34.30;41.00
11246;DHT22;59870;50.106;8.580;2022-08-19T09:27:23;34.40;41.30
11246;DHT22;59870;50.106;8.580;2022-08-19T09:30:18;34.50;40.80
11246;DHT22;59870;50.106;8.580;2022-08-19T09:32:48;34.70;40.70
11246;DHT22;59870;50.106;8.580;2022-08-19T09:35:21;34.90;41.10
11246;DHT22;59870;50.106;8.580;2022-08-19T09:37:51;34.90;41.20
11246;DHT22;59870;50.106;8.580;2022-08-19T09:40:29;35.00;41.20
11246;DHT22;59870;50.106;8.580;2022-08-19T09:43:04;35.00;40.10
11246;DHT22;59870;50.106;8.580;2022-08-19T09:45:39;35.00;39.60
11246;DHT22;59870;50.106;8.580;2022-08-19T09:48:07;35.00;39.80
11246;DHT22;59870;50.106;8.580;2022-08-19T09:50:36;35.00;39.80
11246;DHT22;59870;50.106;8.580;2022-08-19T09:53:20;34.90;39.60
11246;DHT22;59870;50.106;8.580;2022-08-19T09:55:54;35.00;40.40
11246;DHT22;59870;50.106;8.580;2022-08-19T09:58:21;34.90;38.90
11246;DHT22;59870;50.106;8.580;2022-08-19T10:00:55;35.20;39.30
11246;DHT22;59870;50.106;8.580;2022-08-19T10:03:23;34.60;39.10
11246;DHT22;59870;50.106;8.580;2022-08-19T10:05:58;34.40;38.90
11246;DHT22;59870;50.106;8.580;2022-08-19T10:08:29;34.40;39.90
11246;DHT22;59870;50.106;8.580;2022-08-19T10:10:58;34.40;39.90
11246;DHT22;59870;50.106;8.580;2022-08-19T10:13:47;34.30;39.40
11246;DHT22;59870;50.106;8.580;2022-08-19T10:16:19;34.20;40.50
11246;DHT22;59870;50.106;8.580;2022-08-19T10:18:53;34.10;41.00
11246;DHT22;59870;50.106;8.580;2022-08-19T10:21:27;33.90;41.00
11246;DHT22;59870;50.106;8.580;2022-08-19T10:24:00;33.70;41.20
11246;DHT22;59870;50.106;8.580;2022-08-19T10:26:55;33.60;42.30
11246;DHT22;59870;50.106;8.580;2022-08-19T10:29:26;33.50;41.30
11246;DHT22;59870;50.106;8.580;2022-08-19T10:32:05;33.40;40.70
11246;DHT22;59870;50.106;8.580;2022-08-19T10:34:37;33.40;41.40
11246;DHT22;59870;50.106;8.580;2022-08-19T10:37:18;33.40;40.40
11246;DHT22;59870;50.106;8.580;2022-08-19T10:39:56;33.80;41.10
11246;DHT22;59870;50.106;8.580;2022-08-19T10:42:24;33.40;40.40
11246;DHT22;59870;50.106;8.580;2022-08-19T10:44:51;33.40;40.10
11246;DHT22;59870;50.106;8.580;2022-08-19T10:47:19;33.30;40.50
11246;DHT22;59870;50.106;8.580;2022-08-19T10:49:53;33.30;41.20
11246;DHT22;59870;50.106;8.580;2022-08-19T10:52:45;33.20;41.60
11246;DHT22;59870;50.106;8.580;2022-08-19T10:55:22;33.10;42.20
11246;DHT22;59870;50.106;8.580;2022-08-19T10:58:19;33.20;42.20
11246;DHT22;59870;50.106;8.580;2022-08-19T11:00:55;33.10;42.10
11246;DHT22;59870;50.106;8.580;2022-08-19T11:03:25;33.10;42.70
11246;DHT22;59870;50.106;8.580;2022-08-19T11:06:13;33.20;42.70
11246;DHT22;59870;50.106;8.580;2022-08-19T11:08:40;33.20;41.80
11246;DHT22;59870;50.106;8.580;2022-08-19T11:11:12;33.10;41.20
11246;DHT22;59870;50.106;8.580;2022-08-19T11:13:41;33.20;41.70
11246;DHT22;59870;50.106;8.580;2022-08-19T11:16:20;33.20;42.00
11246;DHT22;59870;50.106;8.580;2022-08-19T11:18:54;33.20;41.90
11246;DHT22;59870;50.106;8.580;2022-08-19T11:21:34;33.20;41.30
11246;DHT22;59870;50.106;8.580;2022-08-19T11:24:05;33.00;41.20
11246;DHT22;59870;50.106;8.580;2022-08-19T11:26:34;33.10;40.70
11246;DHT22;59870;50.106;8.580;2022-08-19T11:29:02;33.10;40.70
11246;DHT22;59870;50.106;8.580;2022-08-19T11:31:33;33.00;41.50
11246;DHT22;59870;50.106;8.580;2022-08-19T11:34:04;33.00;41.70
11246;DHT22;59870;50.106;8.580;2022-08-19T11:36:32;33.00;41.90
11246;DHT22;59870;50.106;8.580;2022-08-19T11:39:00;33.00;40.70
11246;DHT22;59870;50.106;8.580;2022-08-19T11:41:28;33.00;41.10
11246;DHT22;59870;50.106;8.580;2022-08-19T11:43:56;32.90;40.90
11246;DHT22;59870;50.106;8.580;2022-08-19T11:46:27;33.00;41.10
11246;DHT22;59870;50.106;8.580;2022-08-19T11:48:58;33.00;42.00
11246;DHT22;59870;50.106;8.580;2022-08-19T11:51:29;33.00;40.40
11246;DHT22;59870;50.106;8.580;2022-08-19T11:53:58;32.90;39.80
11246;DHT22;59870;50.106;8.580;2022-08-19T11:56:27;32.90;40.60
11246;DHT22;59870;50.106;8.580;2022-08-19T11:58:55;32.80;41.20
11246;DHT22;59870;50.106;8.580;2022-08-19T12:01:25;32.90;40.20
11246;DHT22;59870;50.106;8.580;2022-08-19T12:03:54;32.90;40.60
11246;DHT22;59870;50.106;8.580;2022-08-19T12:06:28;33.00;40.70
11246;DHT22;59870;50.106;8.580;2022-08-19T12:08:57;32.60;39.90
11246;DHT22;59870;50.106;8.580;2022-08-19T12:11:27;33.20;40.40
11246;DHT22;59870;50.106;8.580;2022-08-19T12:13:57;33.20;38.80
11246;DHT22;59870;50.106;8.580;2022-08-19T12:16:28;33.20;39.30
11246;DHT22;59870;50.106;8.580;2022-08-19T12:18:57;33.10;39.20
11246;DHT22;59870;50.106;8.580;2022-08-19T12:21:27;33.00;38.70
11246;DHT22;59870;50.106;8.580;2022-08-19T12:23:57;33.10;39.00
11246;DHT22;59870;50.106;8.580;2022-08-19T12:26:26;33.00;38.40
11246;DHT22;59870;50.106;8.580;2022-08-19T12:28:54;33.00;38.20
11246;DHT22;59870;50.106;8.580;2022-08-19T12:31:21;33.00;38.50
11246;DHT22;59870;50.106;8.580;2022-08-19T12:33:49;33.10;38.30
11246;DHT22;59870;50.106;8.580;2022-08-19T12:36:17;33.20;38.10
11246;DHT22;59870;50.106;8.580;2022-08-19T12:38:45;33.20;38.10
11246;DHT22;59870;50.106;8.580;2022-08-19T12:41:15;33.20;37.30
11246;DHT22;59870;50.106;8.580;2022-08-19T12:43:45;33.20;37.10
11246;DHT22;59870;50.106;8.580;2022-08-19T12:46:12;33.20;37.70
11246;DHT22;59870;50.106;8.580;2022-08-19T12:48:43;33.20;37.50
11246;DHT22;59870;50.106;8.580;2022-08-19T12:51:14;33.20;38.50
11246;DHT22;59870;50.106;8.580;2022-08-19T12:53:42;33.20;38.30
11246;DHT22;59870;50.106;8.580;2022-08-19T12:56:11;33.30;37.60
11246;DHT22;59870;50.106;8.580;2022-08-19T12:58:42;33.30;37.40
11246;DHT22;59870;50.106;8.580;2022-08-19T13:01:17;33.20;37.30
11246;DHT22;59870;50.106;8.580;2022-08-19T13:03:50;33.20;37.40
11246;DHT22;59870;50.106;8.580;2022-08-19T13:06:20;33.30;37.70
11246;DHT22;59870;50.106;8.580;2022-08-19T13:08:48;33.20;37.20
11246;DHT22;59870;50.106;8.580;2022-08-19T13:11:18;33.30;38.00
11246;DHT22;59870;50.106;8.580;2022-08-19T13:13:48;33.30;37.30
11246;DHT22;59870;50.106;8.580;2022-08-19T13:16:16;33.40;36.20
11246;DHT22;59870;50.106;8.580;2022-08-19T13:18:48;33.40;36.60
11246;DHT22;59870;50.106;8.580;2022-08-19T13:21:22;33.40;36.00
11246;DHT22;59870;50.106;8.580;2022-08-19T13:23:51;33.40;36.50
11246;DHT22;59870;50.106;8.580;2022-08-19T13:26:20;33.40;36.50
11246;DHT22;59870;50.106;8.580;2022-08-19T13:28:47;33.50;36.40
11246;DHT22;59870;50.106;8.580;2022-08-19T13:31:35;33.60;36.40
11246;DHT22;59870;50.106;8.580;2022-08-19T13:34:32;33.60;35.90
11246;DHT22;59870;50.106;8.580;2022-08-19T13:37:01;33.60;36.60
11246;DHT22;59870;50.106;8.580;2022-08-19T13:39:33;33.60;35.90
11246;DHT22;59870;50.106;8.580;2022-08-19T13:42:02;33.60;36.10
11246;DHT22;59870;50.106;8.580;2022-08-19T13:44:31;33.60;35.80
11246;DHT22;59870;50.106;8.580;2022-08-19T13:47:04;33.60;35.20
11246;DHT22;59870;50.106;8.580;2022-08-19T13:49:35;33.70;35.80
11246;DHT22;59870;50.106;8.580;2022-08-19T13:52:05;33.80;35.30
11246;DHT22;59870;50.106;8.580;2022-08-19T13:54:33;34.20;35.30
11246;DHT22;59870;50.106;8.580;2022-08-19T13:57:01;33.80;35.30
11246;DHT22;59870;50.106;8.580;2022-08-19T13:59:28;33.70;34.70
11246;DHT22;59870;50.106;8.580;2022-08-19T14:01:59;33.70;35.40
11246;DHT22;59870;50.106;8.580;2022-08-19T14:04:27;33.70;35.40
11246;DHT22;59870;50.106;8.580;2022-08-19T14:06:56;33.70;34.70
11246;DHT22;59870;50.106;8.580;2022-08-19T14:09:23;33.80;35.20
11246;DHT22;59870;50.106;8.580;2022-08-19T14:11:51;33.80;35.20
11246;DHT22;59870;50.106;8.580;2022-08-19T14:14:18;33.80;34.80
11246;DHT22;59870;50.106;8.580;2022-08-19T14:16:46;33.80;34.40
11246;DHT22;59870;50.106;8.580;2022-08-19T14:19:14;33.80;34.40
11246;DHT22;59870;50.106;8.580;2022-08-19T14:21:41;33.80;35.00
11246;DHT22;59870;50.106;8.580;2022-08-19T14:24:09;33.90;34.10
11246;DHT22;59870;50.106;8.580;2022-08-19T14:26:37;33.90;33.50
11246;DHT22;59870;50.106;8.580;2022-08-19T14:29:04;33.90;32.60
11246;DHT22;59870;50.106;8.580;2022-08-19T14:31:32;34.00;32.80
11246;DHT22;59870;50.106;8.580;2022-08-19T14:33:59;33.90;33.00
11246;DHT22;59870;50.106;8.580;2022-08-19T14:36:26;33.90;33.20
11246;DHT22;59870;50.106;8.580;2022-08-19T14:38:54;34.00;33.70
11246;DHT22;59870;50.106;8.580;2022-08-19T14:41:22;33.90;33.90
11246;DHT22;59870;50.106;8.580;2022-08-19T14:43:52;34.00;34.10
11246;DHT22;59870;50.106;8.580;2022-08-19T14:46:23;34.10;33.80
11246;DHT22;59870;50.106;8.580;2022-08-19T14:48:56;34.10;34.00
11246;DHT22;59870;50.106;8.580;2022-08-19T14:51:26;34.10;33.40
11246;DHT22;59870;50.106;8.580;2022-08-19T14:53:54;34.10;33.20
11246;DHT22;59870;50.106;8.580;2022-08-19T14:56:25;34.00;33.20
11246;DHT22;59870;50.106;8.580;2022-08-19T14:58:53;33.90;33.00
11246;DHT22;59870;50.106;8.580;2022-08-19T15:01:22;34.00;33.00
11246;DHT22;59870;50.106;8.580;2022-08-19T15:03:50;33.90;33.20
11246;DHT22;59870;50.106;8.580;2022-08-19T15:06:21;34.60;33.10
11246;DHT22;59870;50.106;8.580;2022-08-19T15:08:49;33.90;32.60
11246;DHT22;59870;50.106;8.580;2022-08-19T15:11:21;33.90;32.10
11246;DHT22;59870;50.106;8.580;2022-08-19T15:13:49;33.80;32.10
11246;DHT22;59870;50.106;8.580;2022-08-19T15:16:18;33.80;31.80
11246;DHT22;59870;50.106;8.580;2022-08-19T15:18:49;33.70;31.20
11246;DHT22;59870;50.106;8.580;2022-08-19T15:21:17;33.70;30.90
11246;DHT22;59870;50.106;8.580;2022-08-19T15:23:55;33.60;32.40
11246;DHT22;59870;50.106;8.580;2022-08-19T15:26:24;33.50;33.70
11246;DHT22;59870;50.106;8.580;2022-08-19T15:28:55;33.60;33.00
11246;DHT22;59870;50.106;8.580;2022-08-19T15:31:23;33.60;33.20
11246;DHT22;59870;50.106;8.580;2022-08-19T15:33:56;33.50;33.00
11246;DHT22;59870;50.106;8.580;2022-08-19T15:36:25;33.50;32.90
11246;DHT22;59870;50.106;8.580;2022-08-19T15:38:54;33.50;32.50
11246;DHT22;59870;50.106;8.580;2022-08-19T15:41:25;33.40;32.80
11246;DHT22;59870;50.106;8.580;2022-08-19T15:44:01;33.40;33.10
11246;DHT22;59870;50.106;8.580;2022-08-19T15:46:32;33.40;33.70
11246;DHT22;59870;50.106;8.580;2022-08-19T15:49:00;33.30;34.10
11246;DHT22;59870;50.106;8.580;2022-08-19T15:51:29;33.40;34.30
11246;DHT22;59870;50.106;8.580;2022-08-19T15:53:58;33.30;33.80
11246;DHT22;59870;50.106;8.580;2022-08-19T15:56:26;33.30;32.00
11246;DHT22;59870;50.106;8.580;2022-08-19T15:59:25;33.30;32.70
11246;DHT22;59870;50.106;8.580;2022-08-19T16:02:18;33.40;33.30
11246;DHT22;59870;50.106;8.580;2022-08-19T16:05:08;33.30;32.60
11246;DHT22;59870;50.106;8.580;2022-08-19T16:07:55;33.30;32.90
11246;DHT22;59870;50.106;8.580;2022-08-19T16:10:23;33.40;32.50
11246;DHT22;59870;50.106;8.580;2022-08-19T16:12:55;33.40;33.00
11246;DHT22;59870;50.106;8.580;2022-08-19T16:15:26;33.40;32.10
11246;DHT22;59870;50.106;8.580;2022-08-19T16:17:55;33.50;32.70
11246;DHT22;59870;50.106;8.580;2022-08-19T16:20:24;34.00;33.30
11246;DHT22;59870;50.106;8.580;2022-08-19T16:22:57;33.50;31.70